Time;durP1;ratioP1;P1;durP2;ratioP2;P2;SDS_P1;SDS_P2;PMS_P1;PMS_P2;Temp;Humidity;BMP_temperature;BMP_pressure;BME280_temperature;BME280_humidity;BME280_pressure;Samples;Min_cycle;Max_cycle;Signal;HPM_P1;HPM_P2
2022/03/04 00:00:25;;;;;;;18.10;12.60;;;;;;;3.79;47.15;100037.03;1087793;54;20057;-80
2022/03/04 00:01:29;;;;;;;15.77;10.80;;;;;;;3.84;46.98;100036.72;1087829;54;20034;-78
2022/03/04 00:02:33;;;;;;;17.83;11.45;;;;;;;3.84;47.15;100048.16;1089141;46;20046;-80
2022/03/04 00:03:38;;;;;;;19.13;11.20;;;;;;;3.87;46.88;100039.19;1087799;39;20523;-80
2022/03/04 00:04:39;;;;;;;16.42;11.40;;;;;;;3.89;47.03;100040.75;1087785;54;20059;-79
2022/03/04 00:05:44;;;;;;;14.82;10.13;;;;;;;3.93;46.85;100046.69;1087867;54;20039;-79
2022/03/04 00:06:45;;;;;;;17.45;10.50;;;;;;;3.88;46.92;100054.94;1087918;54;20043;-79
2022/03/04 00:07:50;;;;;;;16.33;9.98;;;;;;;3.89;46.77;100053.16;1087933;54;20018;-78
2022/03/04 00:08:51;;;;;;;15.48;9.88;;;;;;;3.89;46.86;100053.16;1087675;54;20549;-78
2022/03/04 00:09:56;;;;;;;13.95;9.90;;;;;;;3.88;46.82;100054.94;1087498;54;20035;-80
2022/03/04 00:10:57;;;;;;;14.27;9.82;;;;;;;3.91;46.65;100048.63;1087542;54;20026;-79
2022/03/04 00:12:03;;;;;;;14.52;9.77;;;;;;;3.94;46.70;100052.84;1087158;54;20102;-81
2022/03/04 00:13:05;;;;;;;17.05;11.77;;;;;;;3.73;47.48;100053.31;1087673;47;20062;-78
2022/03/04 00:14:09;;;;;;;18.80;11.82;;;;;;;3.82;47.21;100058.00;1087905;54;20031;-79
2022/03/04 00:15:11;;;;;;;14.63;10.27;;;;;;;3.89;47.14;100064.56;1088877;46;20034;-79
2022/03/04 00:16:16;;;;;;;17.63;10.95;;;;;;;3.89;47.03;100061.09;1087652;54;20061;-79
2022/03/04 00:17:17;;;;;;;15.32;10.00;;;;;;;3.93;47.07;100056.44;1087517;54;20034;-79
2022/03/04 00:18:24;;;;;;;15.63;10.27;;;;;;;3.90;47.06;100063.63;1087694;54;20042;-78
2022/03/04 00:19:26;;;;;;;17.27;10.73;;;;;;;3.84;47.14;100060.53;1087795;54;20882;-78
2022/03/04 00:20:30;;;;;;;16.02;10.93;;;;;;;3.87;47.13;100055.88;1087399;54;20034;-80
2022/03/04 00:21:32;;;;;;;15.45;11.05;;;;;;;3.86;47.09;100059.50;1088282;46;20038;-80
2022/03/04 00:22:36;;;;;;;15.40;11.10;;;;;;;3.83;47.26;100064.13;1087921;54;20035;-80
2022/03/04 00:23:38;;;;;;;15.77;10.48;;;;;;;3.81;47.53;100061.59;1087823;54;20023;-79
2022/03/04 00:24:42;;;;;;;17.58;11.77;;;;;;;3.72;47.77;100062.19;1087793;54;20026;-79
2022/03/04 00:25:46;;;;;;;15.75;11.63;;;;;;;3.70;47.92;100066.72;1087858;54;20026;-80
2022/03/04 00:26:48;;;;;;;18.02;12.32;;;;;;;3.68;47.75;100066.00;1087855;54;20035;-79
2022/03/04 00:27:52;;;;;;;20.95;12.40;;;;;;;3.63;48.14;100065.44;1087787;54;20107;-79
2022/03/04 00:28:54;;;;;;;18.25;11.88;;;;;;;3.62;48.24;100066.38;1087919;54;20035;-79
2022/03/04 00:29:58;;;;;;;16.45;11.30;;;;;;;3.54;48.32;100069.53;1087835;54;20050;-79
2022/03/04 00:31:02;;;;;;;17.60;12.75;;;;;;;3.48;48.81;100068.13;1087987;54;20115;-80
2022/03/04 00:32:04;;;;;;;22.70;12.73;;;;;;;3.48;48.62;100075.19;1089865;39;20512;-79
2022/03/04 00:33:08;;;;;;;17.83;11.68;;;;;;;3.46;48.74;100075.31;1088080;47;20049;-80
2022/03/04 00:34:12;;;;;;;17.65;12.02;;;;;;;3.45;48.85;100070.13;1088162;54;20089;-80
2022/03/04 00:35:17;;;;;;;23.42;13.68;;;;;;;3.46;48.60;100075.31;1088228;54;20015;-79
2022/03/04 00:36:23;;;;;;;17.65;11.60;;;;;;;3.40;49.23;100073.06;1088336;54;20030;-79
2022/03/04 00:37:27;;;;;;;19.10;13.73;;;;;;;3.35;49.32;100073.38;1088155;54;20023;-79
2022/03/04 00:38:32;;;;;;;17.73;12.05;;;;;;;3.33;49.27;100077.03;1088413;54;20035;-79
2022/03/04 00:39:33;;;;;;;19.55;11.88;;;;;;;3.34;49.10;100082.22;1088399;54;20026;-80
2022/03/04 00:40:44;;;;;;;16.63;11.65;;;;;;;3.33;49.19;100085.81;1088329;54;20037;-79
2022/03/04 00:41:46;;;;;;;17.98;11.70;;;;;;;3.34;49.07;100084.88;1089754;47;20010;-79
2022/03/04 00:42:50;;;;;;;15.80;10.93;;;;;;;3.34;49.11;100084.00;1088751;47;20033;-80
2022/03/04 00:43:52;;;;;;;15.00;10.50;;;;;;;3.38;49.14;100077.59;1088259;54;20050;-80
2022/03/04 00:44:58;;;;;;;15.95;10.77;;;;;;;3.39;48.99;100081.94;1088304;54;20079;-80
2022/03/04 00:46:00;;;;;;;15.10;9.82;;;;;;;3.39;49.10;100084.59;1088238;54;20015;-80
2022/03/04 00:47:06;;;;;;;16.48;11.50;;;;;;;3.40;49.04;100078.34;1088186;54;20029;-80
2022/03/04 00:48:11;;;;;;;16.98;10.70;;;;;;;3.40;49.02;100083.63;1088868;47;20018;-80
2022/03/04 00:49:16;;;;;;;16.95;10.95;;;;;;;3.37;49.34;100092.59;1088136;54;20733;-80
2022/03/04 00:50:20;;;;;;;16.85;11.55;;;;;;;3.35;49.18;100083.94;1088467;47;20031;-80
2022/03/04 00:51:22;;;;;;;18.65;12.43;;;;;;;3.30;49.41;100079.88;1088113;54;20038;-80
2022/03/04 00:52:27;;;;;;;22.85;13.43;;;;;;;3.22;49.99;100088.28;1088063;54;20082;-80
2022/03/04 00:53:30;;;;;;;21.42;12.50;;;;;;;3.17;49.96;100093.84;1087966;54;20040;-79
2022/03/04 00:54:34;;;;;;;16.58;11.93;;;;;;;3.17;50.02;100087.72;1091013;47;20022;-80
2022/03/04 00:55:37;;;;;;;17.65;13.05;;;;;;;3.11;50.20;100092.44;1089568;47;20045;-79
2022/03/04 00:56:41;;;;;;;22.02;13.73;;;;;;;3.06;50.16;100091.91;1088522;54;20035;-78
2022/03/04 00:57:45;;;;;;;21.77;13.75;;;;;;;3.00;50.40;100097.53;1088640;54;20016;-79
2022/03/04 00:58:47;;;;;;;22.10;14.60;;;;;;;2.97;50.60;100093.31;1088672;54;20014;-79
2022/03/04 00:59:53;;;;;;;20.92;13.32;;;;;;;2.93;50.63;100090.94;1088502;54;20026;-79
2022/03/04 01:00:54;;;;;;;20.20;12.70;;;;;;;2.97;50.53;100092.47;1088867;46;20023;-80
2022/03/04 01:01:58;;;;;;;19.00;12.75;;;;;;;2.99;50.55;100092.34;1088850;46;20090;-80
2022/03/04 01:03:00;;;;;;;20.20;12.02;;;;;;;3.01;50.46;100088.66;1088239;54;20027;-80
2022/03/04 01:04:04;;;;;;;18.15;12.40;;;;;;;3.01;50.45;100093.13;1088188;54;20065;-80
2022/03/04 01:05:11;;;;;;;19.35;12.35;;;;;;;2.96;50.99;100090.75;1088127;54;20038;-81
2022/03/04 01:06:13;;;;;;;17.13;12.35;;;;;;;2.94;50.81;100093.47;1087822;54;20042;-80
2022/03/04 01:07:17;;;;;;;19.25;13.70;;;;;;;2.93;50.70;100097.06;1088330;54;20015;-79
2022/03/04 01:08:19;;;;;;;19.85;12.80;;;;;;;2.93;50.83;100093.59;1087833;54;20043;-79
2022/03/04 01:09:23;;;;;;;20.80;12.40;;;;;;;2.93;50.97;100085.66;1088049;54;20650;-79
2022/03/04 01:10:27;;;;;;;19.17;13.20;;;;;;;2.89;51.06;100098.22;1088564;39;20436;-79
2022/03/04 01:11:30;;;;;;;18.20;12.60;;;;;;;2.86;51.26;100093.09;1088671;54;20030;-79
2022/03/04 01:12:34;;;;;;;19.00;12.60;;;;;;;2.80;51.10;100091.69;1088221;54;20037;-80
2022/03/04 01:13:36;;;;;;;17.58;12.18;;;;;;;2.85;51.04;100101.13;1088510;54;20042;-80
2022/03/04 01:14:40;;;;;;;19.38;13.52;;;;;;;2.85;51.23;100087.94;1087949;54;20030;-80
2022/03/04 01:15:42;;;;;;;18.42;12.95;;;;;;;2.83;51.22;100095.94;1087851;54;20042;-79
2022/03/04 01:16:46;;;;;;;20.60;12.82;;;;;;;2.81;51.46;100092.56;1090944;39;20747;-80
2022/03/04 01:17:47;;;;;;;21.23;13.35;;;;;;;2.75;51.57;100080.56;1087852;54;20127;-79
2022/03/04 01:18:52;;;;;;;18.98;13.27;;;;;;;2.74;51.64;100092.06;1087861;54;20026;-79
2022/03/04 01:19:53;;;;;;;20.35;13.55;;;;;;;2.70;51.74;100098.47;1087887;54;20049;-79
2022/03/04 01:21:00;;;;;;;19.02;13.35;;;;;;;2.68;51.65;100089.81;1087882;47;20034;-80
2022/03/04 01:22:04;;;;;;;22.08;14.23;;;;;;;2.65;51.84;100093.47;1087862;54;20039;-80
2022/03/04 01:23:06;;;;;;;19.92;13.80;;;;;;;2.63;51.77;100084.81;1088040;54;20050;-80
2022/03/04 01:24:10;;;;;;;17.60;12.52;;;;;;;2.61;51.99;100086.69;1088311;54;20011;-79
2022/03/04 01:25:11;;;;;;;18.40;12.88;;;;;;;2.61;51.73;100088.47;1088093;54;20035;-79
2022/03/04 01:26:16;;;;;;;18.50;13.35;;;;;;;2.60;52.05;100084.13;1088074;54;20065;-79
2022/03/04 01:27:18;;;;;;;21.65;12.52;;;;;;;2.62;52.08;100087.53;1087842;54;20034;-80
2022/03/04 01:28:23;;;;;;;17.70;12.68;;;;;;;2.57;52.15;100079.88;1089063;39;20436;-80
2022/03/04 01:29:24;;;;;;;19.10;12.85;;;;;;;2.58;52.17;100084.22;1088207;54;20042;-80
2022/03/04 01:30:28;;;;;;;20.13;13.27;;;;;;;2.56;52.13;100082.63;1088835;31;20573;-79
2022/03/04 01:31:30;;;;;;;20.38;13.55;;;;;;;2.51;52.63;100093.47;1087931;54;20098;-79
2022/03/04 01:32:34;;;;;;;19.88;13.95;;;;;;;2.54;52.41;100089.78;1088196;47;20038;-79
2022/03/04 01:33:36;;;;;;;20.40;13.98;;;;;;;2.48;52.58;100091.00;1087980;54;20034;-79
2022/03/04 01:34:40;;;;;;;19.42;14.23;;;;;;;2.36;53.43;100075.91;1087915;54;20027;-80
2022/03/04 01:35:42;;;;;;;20.85;13.85;;;;;;;2.41;52.89;100079.94;1087745;54;20010;-80
2022/03/04 01:36:49;;;;;;;20.67;14.35;;;;;;;2.39;53.01;100081.84;1087768;54;20042;-80
2022/03/04 01:37:51;;;;;;;20.85;13.50;;;;;;;2.41;52.98;100079.13;1087857;54;20042;-80
2022/03/04 01:38:55;;;;;;;20.13;13.43;;;;;;;2.34;53.28;100074.22;1087682;54;20045;-79
2022/03/04 01:39:56;;;;;;;19.33;13.02;;;;;;;2.35;53.21;100082.97;1088258;54;20046;-80
2022/03/04 01:41:01;;;;;;;20.38;13.60;;;;;;;2.38;53.23;100074.00;1088170;46;20718;-80
2022/03/04 01:42:06;;;;;;;23.25;13.20;;;;;;;2.41;53.13;100072.03;1088135;54;20730;-79
2022/03/04 01:43:08;;;;;;;20.17;12.77;;;;;;;2.40;53.17;100074.78;1088098;54;20018;-80
2022/03/04 01:44:12;;;;;;;19.08;12.70;;;;;;;2.41;53.08;100073.84;1088256;54;20026;-80
2022/03/04 01:45:14;;;;;;;19.15;12.63;;;;;;;2.39;53.10;100073.94;1088348;54;20023;-79
2022/03/04 01:46:20;;;;;;;19.13;13.18;;;;;;;2.42;53.32;100075.53;1088166;54;20026;-79
2022/03/04 01:47:21;;;;;;;19.05;13.20;;;;;;;2.41;53.23;100073.84;1088021;54;20046;-79
2022/03/04 01:48:26;;;;;;;18.50;12.40;;;;;;;2.37;53.31;100073.19;1088222;54;20094;-79
2022/03/04 01:49:28;;;;;;;18.95;12.57;;;;;;;2.38;53.50;100071.38;1088035;54;20042;-80
2022/03/04 01:50:33;;;;;;;21.17;12.77;;;;;;;2.39;53.38;100067.78;1089010;39;20605;-80
2022/03/04 01:51:35;;;;;;;17.52;12.55;;;;;;;2.43;53.35;100067.53;1088226;54;20038;-79
2022/03/04 01:52:42;;;;;;;18.15;12.07;;;;;;;2.46;53.28;100074.41;1088222;54;20037;-79
2022/03/04 01:53:43;;;;;;;19.00;12.43;;;;;;;2.45;53.43;100067.44;1088294;54;20027;-79
2022/03/04 01:54:47;;;;;;;19.25;12.70;;;;;;;2.40;53.43;100067.72;1087984;54;20657;-80
2022/03/04 01:55:49;;;;;;;19.35;13.55;;;;;;;2.41;53.59;100064.13;1087855;54;20049;-80
2022/03/04 01:56:53;;;;;;;17.33;12.15;;;;;;;2.40;53.73;100077.41;1091698;39;20624;-79
2022/03/04 01:57:55;;;;;;;20.45;14.27;;;;;;;2.33;53.87;100064.59;1088635;39;20600;-80
2022/03/04 01:58:59;;;;;;;19.17;13.70;;;;;;;2.31;53.87;100065.63;1087902;54;20042;-79
2022/03/04 02:00:01;;;;;;;20.83;14.40;;;;;;;2.25;54.30;100065.97;1090077;39;20629;-80
2022/03/04 02:01:07;;;;;;;20.77;13.77;;;;;;;2.28;53.88;100063.16;1088647;39;20559;-80
2022/03/04 02:02:10;;;;;;;22.42;14.35;;;;;;;2.22;54.55;100067.03;1088203;54;20034;-80
2022/03/04 02:03:15;;;;;;;19.48;13.32;;;;;;;2.22;54.21;100068.81;1088153;54;20057;-80
2022/03/04 02:04:19;;;;;;;21.48;14.30;;;;;;;2.16;54.62;100060.31;1088229;54;20038;-78
2022/03/04 02:05:23;;;;;;;21.17;14.73;;;;;;;2.13;54.84;100070.19;1088340;54;20089;-79
2022/03/04 02:06:25;;;;;;;20.35;12.95;;;;;;;2.13;54.50;100067.56;1089178;46;20046;-79
2022/03/04 02:07:29;;;;;;;20.45;14.57;;;;;;;2.12;54.68;100057.94;1088180;54;20718;-79
2022/03/04 02:08:34;;;;;;;20.80;12.85;;;;;;;2.10;54.95;100065.09;1088231;54;20069;-79
2022/03/04 02:09:38;;;;;;;19.38;13.25;;;;;;;2.12;54.70;100065.84;1088945;46;20750;-81
2022/03/04 02:10:39;;;;;;;20.33;13.65;;;;;;;2.09;54.81;100063.38;1087775;54;20061;-80
2022/03/04 02:11:44;;;;;;;24.90;14.23;;;;;;;2.07;54.70;100063.50;1087880;54;20038;-79
2022/03/04 02:12:45;;;;;;;25.23;16.45;;;;;;;2.00;54.84;100068.28;1087529;54;20034;-80
2022/03/04 02:13:49;;;;;;;22.25;14.82;;;;;;;1.96;55.03;100063.25;1086792;54;20189;-80
2022/03/04 02:14:51;;;;;;;18.63;13.70;;;;;;;1.96;54.99;100077.31;1087351;54;20046;-79
2022/03/04 02:15:55;;;;;;;24.05;14.88;;;;;;;1.97;54.77;100065.84;1087824;54;20030;-80
2022/03/04 02:16:57;;;;;;;17.23;12.48;;;;;;;2.01;54.69;100066.50;1087665;54;20039;-79
2022/03/04 02:18:01;;;;;;;19.95;14.60;;;;;;;1.95;55.20;100074.75;1087809;54;20054;-79
2022/03/04 02:19:03;;;;;;;20.40;14.73;;;;;;;1.88;55.33;100076.91;1087886;54;20926;-79
2022/03/04 02:20:09;;;;;;;24.25;15.77;;;;;;;1.83;55.65;100073.66;1088231;46;20050;-78
2022/03/04 02:21:13;;;;;;;22.73;15.43;;;;;;;1.85;55.51;100066.53;1088290;54;20038;-80
2022/03/04 02:22:20;;;;;;;22.25;16.10;;;;;;;1.81;55.70;100065.00;1088240;54;20038;-79
2022/03/04 02:23:22;;;;;;;23.20;15.80;;;;;;;1.78;55.75;100071.31;1088363;54;20019;-80
2022/03/04 02:24:28;;;;;;;21.35;14.52;;;;;;;1.83;55.52;100065.75;1088225;54;20034;-79
2022/03/04 02:25:29;;;;;;;21.33;14.80;;;;;;;1.84;55.32;100064.84;1088307;54;20045;-79
2022/03/04 02:26:34;;;;;;;26.63;16.52;;;;;;;1.79;55.59;100069.53;1088371;54;20662;-80
2022/03/04 02:27:35;;;;;;;25.48;16.33;;;;;;;1.73;55.82;100067.22;1088212;54;20031;-79
2022/03/04 02:28:39;;;;;;;23.40;15.65;;;;;;;1.73;55.61;100073.38;1088277;54;20026;-80
2022/03/04 02:29:41;;;;;;;23.42;16.38;;;;;;;1.62;55.94;100079.22;1088240;54;20050;-80
2022/03/04 02:30:45;;;;;;;21.90;14.57;;;;;;;1.70;55.52;100069.09;1088670;46;20070;-79
2022/03/04 02:31:48;;;;;;;23.10;15.23;;;;;;;1.74;55.46;100074.19;1088249;54;20050;-79
2022/03/04 02:32:52;;;;;;;20.45;13.82;;;;;;;1.79;55.47;100065.09;1088156;54;20618;-81
2022/03/04 02:33:53;;;;;;;23.17;14.75;;;;;;;1.77;55.51;100068.75;1088240;54;20038;-80
2022/03/04 02:34:58;;;;;;;23.23;15.52;;;;;;;1.74;55.52;100061.88;1088228;54;20034;-79
2022/03/04 02:35:59;;;;;;;23.38;14.43;;;;;;;1.74;55.44;100063.66;1087887;54;20030;-80
2022/03/04 02:37:03;;;;;;;20.80;15.10;;;;;;;1.76;55.42;100067.91;1087933;54;20026;-79
2022/03/04 02:38:08;;;;;;;23.38;15.05;;;;;;;1.69;55.63;100066.56;1088137;54;20056;-79
2022/03/04 02:39:13;;;;;;;26.77;16.08;;;;;;;1.59;55.85;100062.75;1088293;54;20053;-80
2022/03/04 02:40:14;;;;;;;24.77;16.75;;;;;;;1.53;56.13;100064.78;1092309;39;20504;-80
2022/03/04 02:41:19;;;;;;;23.17;16.38;;;;;;;1.51;56.17;100068.47;1088312;54;20038;-79
2022/03/04 02:42:22;;;;;;;25.02;16.25;;;;;;;1.40;56.54;100062.00;1088284;54;20023;-81
2022/03/04 02:43:26;;;;;;;24.80;16.42;;;;;;;1.44;56.38;100061.81;1088285;54;20034;-80
2022/03/04 02:44:29;;;;;;;26.50;17.48;;;;;;;1.41;56.54;100062.84;1088280;54;20034;-80
2022/03/04 02:45:33;;;;;;;26.75;16.92;;;;;;;1.34;56.69;100064.97;1088255;54;20034;-81
2022/03/04 02:46:42;;;;;;;25.55;18.17;;;;;;;1.31;56.96;100066.91;1088084;54;20039;-79
2022/03/04 02:47:56;;;;;;;23.27;16.52;;;;;;;1.32;56.75;100069.50;1087852;54;20090;-80
2022/03/04 02:48:58;;;;;;;23.98;16.10;;;;;;;1.26;57.03;100077.72;1088362;54;20034;-79
2022/03/04 02:50:02;;;;;;;25.58;17.48;;;;;;;1.28;57.10;100067.94;1088233;54;20057;-79
2022/03/04 02:51:04;;;;;;;23.33;15.48;;;;;;;1.31;56.94;100073.06;1088365;54;20034;-79
2022/03/04 02:52:09;;;;;;;27.52;17.58;;;;;;;1.31;56.99;100073.06;1088202;54;20017;-80
2022/03/04 02:53:13;;;;;;;23.92;16.10;;;;;;;1.34;56.74;100077.28;1088009;54;20039;-79
2022/03/04 02:54:18;;;;;;;24.10;15.38;;;;;;;1.41;56.60;100073.38;1088138;54;20034;-80
2022/03/04 02:55:20;;;;;;;23.02;15.73;;;;;;;1.42;56.84;100072.44;1087954;54;20038;-80
2022/03/04 02:56:24;;;;;;;23.95;15.23;;;;;;;1.46;56.41;100076.63;1087957;54;20042;-80
2022/03/04 02:57:26;;;;;;;23.33;15.02;;;;;;;1.48;56.56;100074.72;1087952;54;20034;-79
2022/03/04 02:58:31;;;;;;;23.75;15.82;;;;;;;1.51;56.23;100073.72;1088041;54;20030;-80
2022/03/04 02:59:32;;;;;;;22.00;15.70;;;;;;;1.52;56.14;100073.63;1087987;54;20038;-79
2022/03/04 03:00:36;;;;;;;20.30;13.82;;;;;;;1.58;56.11;100069.81;1088004;54;20030;-79
2022/03/04 03:01:38;;;;;;;22.30;15.00;;;;;;;1.61;55.99;100072.25;1092047;39;20558;-80
2022/03/04 03:02:44;;;;;;;26.80;15.70;;;;;;;1.58;56.28;100059.25;1089062;46;20050;-80
2022/03/04 03:03:46;;;;;;;22.23;15.13;;;;;;;1.58;56.43;100061.91;1089280;46;20039;-78
2022/03/04 03:04:50;;;;;;;23.20;15.27;;;;;;;1.59;56.20;100068.88;1087813;54;20034;-79
2022/03/04 03:05:51;;;;;;;21.98;15.23;;;;;;;1.58;56.28;100066.31;1090414;39;20574;-78
2022/03/04 03:06:57;;;;;;;23.73;15.55;;;;;;;1.60;56.21;100074.97;1087842;54;20038;-78
2022/03/04 03:07:59;;;;;;;22.65;14.85;;;;;;;1.57;56.45;100073.38;1087796;54;20030;-79
2022/03/04 03:09:06;;;;;;;23.10;15.30;;;;;;;1.59;56.42;100074.16;1087836;54;20027;-79
2022/03/04 03:10:09;;;;;;;22.60;15.07;;;;;;;1.52;56.58;100072.78;1087851;54;20049;-79
2022/03/04 03:11:13;;;;;;;24.08;16.40;;;;;;;1.47;56.86;100072.19;1087789;54;20042;-79
2022/03/04 03:12:15;;;;;;;24.75;16.08;;;;;;;1.51;56.60;100065.81;1087756;54;20033;-79
2022/03/04 03:13:19;;;;;;;25.40;15.52;;;;;;;1.53;56.51;100066.56;1087783;54;20736;-79
2022/03/04 03:14:21;;;;;;;22.95;14.95;;;;;;;1.57;56.58;100073.38;1087483;54;20031;-79
2022/03/04 03:15:25;;;;;;;23.20;15.75;;;;;;;1.56;56.49;100067.25;1087830;54;20050;-80
2022/03/04 03:16:29;;;;;;;23.48;14.98;;;;;;;1.62;56.47;100070.47;1088309;39;20614;-80
2022/03/04 03:17:33;;;;;;;22.15;14.98;;;;;;;1.63;56.19;100075.66;1089138;39;20376;-80
2022/03/04 03:18:36;;;;;;;23.00;15.75;;;;;;;1.61;56.66;100074.06;1087649;54;20085;-79
2022/03/04 03:19:40;;;;;;;23.10;14.85;;;;;;;1.62;56.50;100073.13;1087686;54;20086;-78
2022/03/04 03:20:43;;;;;;;22.85;14.57;;;;;;;1.63;56.14;100073.03;1087748;54;20042;-79
2022/03/04 03:21:47;;;;;;;21.13;13.63;;;;;;;1.68;56.19;100071.00;1087807;54;20034;-79
2022/03/04 03:22:48;;;;;;;20.75;14.05;;;;;;;1.69;56.13;100069.19;1087757;54;20035;-80
2022/03/04 03:23:53;;;;;;;24.85;15.63;;;;;;;1.65;56.27;100076.44;1087990;47;20033;-80
2022/03/04 03:24:57;;;;;;;25.80;16.25;;;;;;;1.57;56.86;100078.66;1087880;54;20114;-80
2022/03/04 03:26:01;;;;;;;24.55;15.82;;;;;;;1.56;56.53;100076.94;1087903;54;20036;-78
2022/03/04 03:27:03;;;;;;;24.75;16.27;;;;;;;1.52;56.80;100085.94;1087825;54;20030;-79
2022/03/04 03:28:08;;;;;;;21.88;15.52;;;;;;;1.49;56.95;100075.59;1087718;54;20030;-79
2022/03/04 03:29:10;;;;;;;21.95;15.20;;;;;;;1.50;57.03;100077.31;1087833;54;20031;-79
2022/03/04 03:30:15;;;;;;;22.45;14.98;;;;;;;1.51;56.87;100079.84;1087814;54;20037;-78
2022/03/04 03:31:16;;;;;;;21.98;15.45;;;;;;;1.52;57.01;100080.69;1087739;54;20611;-80
2022/03/04 03:32:21;;;;;;;25.60;15.80;;;;;;;1.50;56.86;100083.41;1087711;54;20670;-80
2022/03/04 03:33:22;;;;;;;22.52;15.77;;;;;;;1.54;56.63;100084.94;1087808;54;20038;-80
2022/03/04 03:34:26;;;;;;;22.90;16.13;;;;;;;1.52;56.87;100086.81;1087696;54;20059;-79
2022/03/04 03:35:29;;;;;;;25.85;15.57;;;;;;;1.54;57.07;100089.34;1088001;54;20031;-79
2022/03/04 03:36:33;;;;;;;22.67;14.45;;;;;;;1.54;56.83;100082.31;1087791;54;20034;-82
2022/03/04 03:37:36;;;;;;;20.23;14.13;;;;;;;1.57;56.70;100083.91;1088328;46;20039;-80
2022/03/04 03:38:40;;;;;;;22.05;14.60;;;;;;;1.54;57.12;100086.72;1087782;54;20030;-78
2022/03/04 03:39:41;;;;;;;21.20;14.93;;;;;;;1.56;57.10;100087.47;1087764;54;20041;-79
2022/03/04 03:40:48;;;;;;;21.85;14.73;;;;;;;1.53;57.10;100085.88;1087713;54;20037;-79
2022/03/04 03:41:50;;;;;;;25.20;15.88;;;;;;;1.51;56.91;100087.75;1088154;46;20039;-84
2022/03/04 03:42:54;;;;;;;22.55;14.52;;;;;;;1.54;57.00;100089.34;1087683;54;20057;-79
2022/03/04 03:43:55;;;;;;;20.42;14.10;;;;;;;1.50;57.02;100087.84;1087763;54;20055;-80
2022/03/04 03:45:00;;;;;;;22.10;15.32;;;;;;;1.56;56.99;100092.75;1087816;54;20031;-79
2022/03/04 03:46:01;;;;;;;22.48;14.55;;;;;;;1.55;56.75;100102.47;1087837;54;20041;-80
2022/03/04 03:47:06;;;;;;;21.65;14.57;;;;;;;1.54;57.02;100095.50;1087785;54;20053;-80
2022/03/04 03:48:08;;;;;;;21.67;14.57;;;;;;;1.54;57.18;100094.63;1087708;54;20038;-80
2022/03/04 03:49:12;;;;;;;24.35;15.77;;;;;;;1.50;57.32;100098.38;1093568;39;20953;-81
2022/03/04 03:50:13;;;;;;;26.33;16.77;;;;;;;1.43;57.50;100097.00;1088192;54;20037;-81
2022/03/04 03:51:17;;;;;;;27.20;16.45;;;;;;;1.40;57.27;100098.88;1087937;54;20034;-81
2022/03/04 03:52:20;;;;;;;22.77;15.80;;;;;;;1.34;57.66;100103.63;1087746;54;20034;-80
2022/03/04 03:53:24;;;;;;;23.85;16.27;;;;;;;1.33;57.72;100101.94;1087816;54;20073;-80
2022/03/04 03:54:26;;;;;;;21.23;15.70;;;;;;;1.32;57.59;100100.22;1089771;39;20622;-80
2022/03/04 03:55:30;;;;;;;20.50;14.82;;;;;;;1.35;57.47;100095.66;1088235;47;20018;-80
2022/03/04 03:56:36;;;;;;;24.20;16.05;;;;;;;1.30;58.04;100092.44;1088170;54;20034;-80
2022/03/04 03:57:40;;;;;;;22.88;15.30;;;;;;;1.36;57.35;100094.72;1088230;54;20030;-81
2022/03/04 03:58:42;;;;;;;23.65;14.95;;;;;;;1.39;57.36;100091.91;1087821;54;20045;-81
2022/03/04 03:59:46;;;;;;;23.35;14.73;;;;;;;1.37;57.42;100103.47;1088153;54;20040;-81
2022/03/04 04:00:52;;;;;;;25.73;16.23;;;;;;;1.32;57.79;100097.59;1087861;54;20054;-79
2022/03/04 04:02:02;;;;;;;21.92;15.52;;;;;;;1.30;57.78;100102.97;1087753;54;20045;-80
2022/03/04 04:03:05;;;;;;;24.00;15.35;;;;;;;1.29;57.97;100100.38;1087656;54;20031;-81
2022/03/04 04:04:09;;;;;;;22.05;15.00;;;;;;;1.31;57.66;100102.03;1092309;39;20618;-80
2022/03/04 04:05:11;;;;;;;25.02;15.75;;;;;;;1.23;58.12;100099.81;1087773;54;20846;-80
2022/03/04 04:06:16;;;;;;;24.85;16.38;;;;;;;1.23;57.96;100101.56;1087675;54;20030;-79
2022/03/04 04:07:17;;;;;;;26.15;17.13;;;;;;;1.15;58.45;100099.38;1087582;54;20764;-80
2022/03/04 04:08:21;;;;;;;25.75;16.80;;;;;;;1.14;58.32;100102.94;1087666;54;20026;-81
2022/03/04 04:09:23;;;;;;;26.83;17.25;;;;;;;1.17;58.24;100107.19;1087997;47;20845;-79
2022/03/04 04:10:27;;;;;;;23.98;17.20;;;;;;;1.11;58.25;100108.38;1089881;46;20027;-80
2022/03/04 04:11:30;;;;;;;25.35;16.60;;;;;;;1.09;58.46;100105.81;1088181;54;20037;-80
2022/03/04 04:12:37;;;;;;;23.92;15.90;;;;;;;1.08;58.33;100109.38;1088064;54;20030;-80
2022/03/04 04:13:38;;;;;;;26.52;17.70;;;;;;;1.06;58.48;100102.50;1088160;54;20706;-78
2022/03/04 04:14:43;;;;;;;27.42;17.30;;;;;;;1.05;58.39;100108.69;1100966;31;20722;-80
2022/03/04 04:15:44;;;;;;;22.75;16.35;;;;;;;1.08;58.19;100104.13;1088165;54;20042;-80
2022/03/04 04:16:49;;;;;;;24.30;16.92;;;;;;;0.97;58.75;100111.72;1088152;54;20864;-79
2022/03/04 04:17:51;;;;;;;23.50;17.17;;;;;;;1.00;58.58;100100.19;1088145;54;20034;-79
2022/03/04 04:18:56;;;;;;;27.42;17.58;;;;;;;0.89;58.97;100108.66;1088205;54;20034;-80
2022/03/04 04:19:57;;;;;;;27.30;17.92;;;;;;;0.91;58.59;100109.44;1088210;54;20019;-80
2022/03/04 04:21:02;;;;;;;31.63;19.75;;;;;;;0.86;59.05;100109.69;1088161;54;20054;-80
2022/03/04 04:22:04;;;;;;;25.77;16.40;;;;;;;0.89;58.82;100108.66;1088188;54;20041;-79
2022/03/04 04:23:09;;;;;;;25.40;17.55;;;;;;;0.88;59.05;100101.69;1088126;54;20014;-81
2022/03/04 04:24:11;;;;;;;24.35;16.52;;;;;;;0.88;58.81;100112.22;1088200;54;20038;-80
2022/03/04 04:25:15;;;;;;;28.70;18.52;;;;;;;0.86;58.82;100108.81;1087995;54;20030;-80
2022/03/04 04:26:17;;;;;;;25.85;16.95;;;;;;;0.86;59.04;100108.81;1087902;54;20035;-79
2022/03/04 04:27:21;;;;;;;22.13;16.33;;;;;;;0.84;58.93;100102.81;1088182;54;20320;-79
2022/03/04 04:28:26;;;;;;;24.52;15.52;;;;;;;0.89;58.73;100108.66;1088014;54;20090;-80
2022/03/04 04:29:30;;;;;;;22.52;15.95;;;;;;;0.96;58.43;100104.75;1088188;54;20686;-80
2022/03/04 04:30:34;;;;;;;27.02;16.92;;;;;;;0.92;58.84;100103.25;1088450;54;20035;-81
2022/03/04 04:31:36;;;;;;;25.55;17.88;;;;;;;0.85;59.28;100107.13;1088537;54;20023;-80
2022/03/04 04:32:40;;;;;;;27.38;18.10;;;;;;;0.84;58.97;100108.06;1088477;54;20034;-80
2022/03/04 04:33:42;;;;;;;27.20;19.02;;;;;;;0.77;59.51;100118.91;1088465;54;20023;-80
2022/03/04 04:34:46;;;;;;;27.95;18.77;;;;;;;0.75;59.65;100112.88;1088447;54;20096;-79
2022/03/04 04:35:47;;;;;;;26.00;17.42;;;;;;;0.78;59.20;100107.44;1088477;54;20026;-80
2022/03/04 04:36:52;;;;;;;28.20;17.23;;;;;;;0.81;59.02;100110.84;1088509;54;20081;-79
2022/03/04 04:37:53;;;;;;;24.73;16.52;;;;;;;0.85;58.97;100113.25;1088476;54;20038;-80
2022/03/04 04:38:58;;;;;;;25.95;17.10;;;;;;;0.83;59.23;100111.63;1088480;54;20030;-79
2022/03/04 04:39:59;;;;;;;26.83;17.95;;;;;;;0.81;59.21;100127.47;1091351;46;20102;-80
2022/03/04 04:41:04;;;;;;;25.80;16.13;;;;;;;0.84;58.94;100115.97;1096615;39;20209;-81
2022/03/04 04:42:06;;;;;;;25.45;16.27;;;;;;;0.86;59.03;100114.09;1088052;54;20182;-79
2022/03/04 04:43:10;;;;;;;23.85;15.82;;;;;;;0.83;59.06;100114.25;1088229;54;20090;-79
2022/03/04 04:44:14;;;;;;;21.65;15.50;;;;;;;0.89;59.09;100124.47;1088472;54;20042;-80
2022/03/04 04:45:18;;;;;;;24.52;16.75;;;;;;;0.90;58.92;100120.91;1088486;54;20030;-79
2022/03/04 04:46:20;;;;;;;24.13;15.50;;;;;;;0.95;58.79;100118.84;1088498;54;20018;-80
2022/03/04 04:47:24;;;;;;;21.30;15.00;;;;;;;0.99;58.64;100114.31;1088433;54;20046;-79
2022/03/04 04:48:26;;;;;;;22.60;15.40;;;;;;;1.02;58.35;100119.38;1094001;39;20740;-79
2022/03/04 04:49:30;;;;;;;20.33;13.93;;;;;;;1.05;58.20;100124.50;1088479;54;20041;-80
2022/03/04 04:50:32;;;;;;;22.92;14.45;;;;;;;1.09;58.23;100121.63;1090906;39;20661;-79
2022/03/04 04:51:36;;;;;;;19.55;13.70;;;;;;;1.17;58.09;100129.13;1091814;46;20081;-78